John H Macmillan Jr — WDB9907 — position and weather

sailwx.info

Track history (hours):
 
Tides and Currents Weather Stations Pressure Air Temp Water Temp Dewpoint Dewpoint Depression Visibility Wind Speed Wind Dir Waves Ship Positions

John H Macmillan Jr

More information available from US FCC via Universal Licensing System and Coast Guard Vessel Documentation Center.

Last reported at 2014-Sep-22 14:28 UTC. Time now 2014-Sep-23 20:23 UTC.
Position N 29°60' W 090°48'.

; draft 9 m.

Type: Towing. MMSI: 366984920.

Date/timePositionNaut miles runAvg speedWind from/ knotsBaromVisibWave heightAir tempDewpointWater temp
2014-Sep-22 14:28N 29°60' W 090°48'6 4.8
2014-Sep-22 13:07N 30°02' W 090°41'3 5.3
2014-Sep-22 12:33N 30°02' W 090°38'1 1.1
2014-Sep-22 11:33N 30°02' W 090°36'1 1.2
2014-Sep-22 10:33N 30°03' W 090°35'1 1.0
2014-Sep-22 09:33N 30°03' W 090°34'6 4.6
2014-Sep-22 08:18N 30°00' W 090°28'10 5.6
2014-Sep-22 06:31N 29°58' W 090°17'6 0.5
2014-Sep-21 19:23N 29°59' W 090°24'5 6.0
2014-Sep-21 18:33N 30°02' W 090°29'7 7.1
2014-Sep-21 17:33N 30°02' W 090°37'  
2014-Sep-14 13:33N 30°03' W 090°35'6 5.7
2014-Sep-14 12:33N 30°02' W 090°28'5 5.3
2014-Sep-14 11:33N 29°59' W 090°24'5 4.8
2014-Sep-14 10:33N 29°56' W 090°19'5 0.6
2014-Sep-14 02:33N 29°59' W 090°24'7 7.0
2014-Sep-14 01:33N 30°03' W 090°30'  
Track history (hours):
 
Tides and Currents Weather Stations Pressure Air Temp Water Temp Dewpoint Dewpoint Depression Visibility Wind Speed Wind Dir Waves Ship Positions

John H Macmillan Jr

More information available from US FCC via Universal Licensing System and Coast Guard Vessel Documentation Center.

Last reported at 2014-Sep-22 14:28 UTC. Time now 2014-Sep-23 20:23 UTC.
Position N 29°60' W 090°48'.

; draft 9 m.

Type: Towing. MMSI: 366984920.

Date/timePositionNaut miles runAvg speedWind from/ knotsBaromVisibWave heightAir tempDewpointWater temp
2014-Sep-22 14:28N 29°60' W 090°48'6 4.8
2014-Sep-22 13:07N 30°02' W 090°41'3 5.3
2014-Sep-22 12:33N 30°02' W 090°38'1 1.1
2014-Sep-22 11:33N 30°02' W 090°36'1 1.2
2014-Sep-22 10:33N 30°03' W 090°35'1 1.0
2014-Sep-22 09:33N 30°03' W 090°34'6 4.6
2014-Sep-22 08:18N 30°00' W 090°28'10 5.6
2014-Sep-22 06:31N 29°58' W 090°17'6 0.5
2014-Sep-21 19:23N 29°59' W 090°24'5 6.0
2014-Sep-21 18:33N 30°02' W 090°29'7 7.1
2014-Sep-21 17:33N 30°02' W 090°37'  
2014-Sep-14 13:33N 30°03' W 090°35'6 5.7
2014-Sep-14 12:33N 30°02' W 090°28'5 5.3
2014-Sep-14 11:33N 29°59' W 090°24'5 4.8
2014-Sep-14 10:33N 29°56' W 090°19'5 0.6
2014-Sep-14 02:33N 29°59' W 090°24'7 7.0
2014-Sep-14 01:33N 30°03' W 090°30'  

Dump ship's entire track history